EREK1: Neosho River near Erie

                                SHEF ID:       EREK1     NEOSHO R NR ERIE, KS
STATION TYPE:

PRECIP STAGE RIV-FLOW BAT-LOAD
in ft cfs volt
Ccp-Rev Ccp-Rev Ccp-Rev Ccp-Rev
(America/Chicago)
02/19 00:00 ---- 14.88 4320 12.41
02/19 01:00 ---- 14.97 4450 12.40
02/19 02:00 ---- 15.02 4520 12.37
02/19 03:00 ---- 15.04 4550 12.37
02/19 04:00 ---- 15.05 4560 12.35
02/19 05:00 ---- 15.14 4690 12.34
02/19 06:00 ---- 15.17 4730 12.33
02/19 07:00 ---- 15.14 4690 12.31
02/19 08:00 ---- 15.16 4720 12.32
02/19 09:00 ---- 15.14 4690 12.50
02/19 10:00 ---- 15.17 4730 13.32
02/19 11:00 ---- 15.14 4690 13.54
02/19 12:00 ---- 15.16 4720 13.30
02/19 13:00 ---- 15.14 4690 13.27
02/19 14:00 ---- 15.18 4750 13.28
02/19 15:00 ---- 15.17 4730 13.27
02/19 16:00 ---- 15.20 4770 13.33
02/19 17:00 ---- 15.18 4750 13.48
02/19 18:00 ---- 15.24 4830 13.52
02/19 19:00 ---- 15.22 4800 13.10
02/19 20:00 ---- 15.20 4770 12.59
02/19 21:00 ---- 15.17 4730 12.42
02/19 22:00 ---- 15.23 4820 12.36
02/19 23:00 ---- 15.18 4750 12.33
Data processed at Fri 20Feb2026 05:23 GMT

NOTICE: If you are parsing this page

Please convert to using our Data API. Starting early 2026 we will be migrating to: https://water.usace.army.mil with modern pages rendered in JavaScript. When this migration completes you will no longer be able to scrape this page! CWMSDataAPI (CDA)

Timeseries IDs (TSIDs)

TSIDs used from left to right in the data table
ERIE.Precip-Inc.Total.1Hour.1Hour.Ccp-Rev
ERIE.Stage.Inst.1Hour.0.Ccp-Rev
ERIE.Flow.Inst.1Hour.0.Ccp-Rev
ERIE.Volt-Battery Load.Inst.1Hour.0.Ccp-Rev

                            

All information presented herein is the property of the government of the United States of America and may be revised or deleted at any time without prior notice. Dissemination of this information without the expressed written consent of the Public Affairs Office, Tulsa District U.S. Army Corps of Engineers is strictly prohibited. These data are gathered electronically and, as presented, have NOT undergone any form of quality control. These data are NOT guaranteed to be valid or correct.